Time;durP1;ratioP1;P1;durP2;ratioP2;P2;SDS_P1;SDS_P2;PMS_P1;PMS_P2;Temp;Humidity;BMP_temperature;BMP_pressure;BME280_temperature;BME280_humidity;BME280_pressure;Samples;Min_cycle;Max_cycle;Signal;HPM_P1;HPM_P2
2021/07/11 00:01:06;;;;;;;6.33;5.57;;;;;;;16.16;64.39;100439.13;154021;1101;103221;-79
2021/07/11 00:04:11;;;;;;;6.60;5.40;;;;;;;16.17;64.61;100430.04;154045;1096;103397;-77
2021/07/11 00:07:16;;;;;;;6.73;5.15;;;;;;;16.21;64.83;100442.11;154134;1101;103226;-78
2021/07/11 00:10:22;;;;;;;6.67;4.90;;;;;;;16.19;64.51;100438.77;154436;1101;103099;-78
2021/07/11 00:13:27;;;;;;;6.35;5.53;;;;;;;16.12;64.58;100447.77;154443;1101;103202;-79
2021/07/11 00:16:34;;;;;;;8.00;5.53;;;;;;;16.10;64.40;100442.56;154583;1101;103210;-78
2021/07/11 00:19:40;;;;;;;10.53;5.43;;;;;;;16.13;65.04;100447.59;153929;1101;103362;-77
2021/07/11 00:22:45;;;;;;;8.55;5.80;;;;;;;16.14;64.27;100434.95;154011;1101;103520;-79
2021/07/11 00:25:50;;;;;;;6.67;5.20;;;;;;;16.11;64.32;100436.17;153947;1094;103190;-78
2021/07/11 00:28:56;;;;;;;6.63;5.77;;;;;;;16.07;64.29;100446.47;153945;1101;103189;-79
2021/07/11 00:32:01;;;;;;;6.50;5.90;;;;;;;16.00;64.70;100444.70;153945;1094;103128;-78
2021/07/11 00:35:06;;;;;;;8.65;5.38;;;;;;;15.95;64.33;100436.33;153962;1101;103185;-78
2021/07/11 00:38:11;;;;;;;8.73;5.80;;;;;;;15.89;64.34;100438.72;154007;1101;103601;-82
2021/07/11 00:41:17;;;;;;;5.53;4.67;;;;;;;15.90;64.76;100440.41;154036;1101;103217;-77
2021/07/11 00:44:23;;;;;;;5.50;4.60;;;;;;;15.92;64.43;100442.92;154006;1101;103121;-80
2021/07/11 00:47:28;;;;;;;5.33;4.68;;;;;;;15.87;64.43;100445.32;154032;1093;103100;-81
2021/07/11 00:50:34;;;;;;;5.70;4.65;;;;;;;15.89;64.31;100443.28;154120;1093;103189;-82
2021/07/11 00:53:55;;;;;;;6.07;5.10;;;;;;;15.91;64.64;100441.23;154168;1094;103127;-83
2021/07/11 00:57:03;;;;;;;7.00;5.13;;;;;;;15.90;64.60;100444.97;154093;1093;103140;-80
2021/07/11 01:00:11;;;;;;;6.45;5.25;;;;;;;15.89;64.32;100437.90;154002;1094;103126;-77
2021/07/11 01:03:47;;;;;;;7.50;5.10;;;;;;;15.85;64.25;100440.11;153907;1093;103154;-77
2021/07/11 01:06:58;;;;;;;7.40;5.03;;;;;;;15.80;64.25;100447.06;153985;1093;103272;-81
2021/07/11 01:10:09;;;;;;;6.28;5.25;;;;;;;15.78;64.31;100443.72;153960;1093;103228;-81
2021/07/11 01:13:16;;;;;;;5.87;5.10;;;;;;;15.74;64.13;100442.41;154101;1101;103132;-82
2021/07/11 01:16:31;;;;;;;5.60;4.90;;;;;;;15.73;64.46;100441.59;154179;1093;103124;-79
2021/07/11 01:19:54;;;;;;;7.35;5.45;;;;;;;15.70;64.41;100445.45;154064;1093;103104;-80
2021/07/11 01:23:01;;;;;;;6.50;5.20;;;;;;;15.65;63.96;100442.47;154392;1094;103256;-79
2021/07/11 01:26:10;;;;;;;10.60;5.25;;;;;;;15.59;64.34;100445.02;154375;1101;103219;-79
2021/07/11 01:29:18;;;;;;;5.73;5.10;;;;;;;15.55;64.22;100441.89;154082;1094;103220;-77
2021/07/11 01:32:27;;;;;;;5.75;4.15;;;;;;;15.58;64.19;100446.06;153931;1101;103217;-76
2021/07/11 01:35:33;;;;;;;5.70;4.88;;;;;;;15.61;64.32;100443.02;154054;1101;103169;-76
2021/07/11 01:38:41;;;;;;;5.80;4.90;;;;;;;15.66;64.33;100446.81;153979;1101;103263;-79
2021/07/11 01:41:49;;;;;;;5.93;5.07;;;;;;;15.66;63.96;100444.12;154024;1093;103147;-79
2021/07/11 01:44:56;;;;;;;5.55;4.98;;;;;;;15.64;64.29;100451.53;154101;1093;103194;-81
2021/07/11 01:48:02;;;;;;;7.50;5.55;;;;;;;15.64;64.18;100448.02;154103;1093;103199;-81
2021/07/11 01:51:08;;;;;;;6.73;5.70;;;;;;;15.63;63.90;100449.88;154121;1093;103196;-81
2021/07/11 01:54:14;;;;;;;9.48;5.65;;;;;;;15.62;63.95;100456.27;154107;1093;103260;-82
2021/07/11 01:57:19;;;;;;;7.33;5.77;;;;;;;15.54;64.04;100461.72;154102;1093;103214;-82
2021/07/11 02:00:29;;;;;;;6.80;5.33;;;;;;;15.52;63.75;100463.75;154078;1093;103195;-82
2021/07/11 02:03:38;;;;;;;6.87;6.10;;;;;;;15.48;64.09;100467.83;154048;1101;103195;-83
2021/07/11 02:06:45;;;;;;;5.97;5.37;;;;;;;15.45;63.77;100470.86;154089;1093;103560;-83
2021/07/11 02:09:55;;;;;;;8.43;6.33;;;;;;;15.37;64.37;100470.93;154120;1093;103320;-78
2021/07/11 02:13:09;;;;;;;7.50;6.00;;;;;;;15.32;63.96;100471.48;154117;1093;103099;-78
2021/07/11 02:16:23;;;;;;;8.63;5.65;;;;;;;15.32;63.96;100474.17;153970;1094;103201;-80
2021/07/11 02:19:34;;;;;;;7.37;5.63;;;;;;;15.28;64.23;100478.20;153949;1093;103132;-80
2021/07/11 02:22:45;;;;;;;8.70;5.80;;;;;;;15.26;63.93;100473.03;154167;1101;103124;-85
2021/07/11 02:25:54;;;;;;;5.60;5.00;;;;;;;15.20;63.93;100476.41;154078;1093;103125;-85
2021/07/11 02:29:00;;;;;;;6.80;4.70;;;;;;;15.20;64.18;100471.02;154149;1101;103230;-83
2021/07/11 02:32:08;;;;;;;7.65;5.58;;;;;;;15.20;64.09;100470.20;154125;1093;103195;-81
2021/07/11 02:35:17;;;;;;;6.33;5.53;;;;;;;15.21;63.88;100466.51;154077;1101;104160;-81
2021/07/11 02:38:24;;;;;;;6.73;5.43;;;;;;;15.20;64.09;100462.96;154053;1101;103131;-81
2021/07/11 02:41:32;;;;;;;8.55;5.78;;;;;;;15.23;63.99;100465.31;154074;1094;103263;-81
2021/07/11 02:44:40;;;;;;;8.45;5.35;;;;;;;15.26;64.11;100464.10;154202;1101;103118;-81
2021/07/11 02:47:47;;;;;;;6.70;5.53;;;;;;;15.29;64.19;100461.07;154036;1093;103155;-82
2021/07/11 02:50:55;;;;;;;6.50;5.80;;;;;;;15.31;64.24;100459.87;154087;1093;103123;-83
2021/07/11 02:54:01;;;;;;;5.93;5.17;;;;;;;15.37;63.94;100461.00;154201;1101;103117;-83
2021/07/11 02:57:08;;;;;;;7.15;5.30;;;;;;;15.37;64.08;100458.31;154041;1093;103713;-81
2021/07/11 03:00:14;;;;;;;6.83;5.23;;;;;;;15.36;63.93;100464.72;154209;1093;103218;-82
2021/07/11 03:03:24;;;;;;;6.78;5.95;;;;;;;15.37;63.89;100466.38;154078;1094;103125;-83
2021/07/11 03:06:36;;;;;;;7.00;5.73;;;;;;;15.34;63.81;100460.52;154066;1101;103190;-82
2021/07/11 03:09:43;;;;;;;8.20;6.80;;;;;;;15.37;63.74;100462.86;154099;1093;103144;-83
2021/07/11 03:12:53;;;;;;;8.48;6.58;;;;;;;15.37;63.76;100465.55;154085;1094;103610;-86
2021/07/11 03:15:59;;;;;;;7.58;6.78;;;;;;;15.36;63.70;100456.66;154144;1093;103182;-86
2021/07/11 03:19:07;;;;;;;8.50;6.73;;;;;;;15.37;64.12;100460.17;154296;1101;103195;-81
2021/07/11 03:22:13;;;;;;;10.15;6.80;;;;;;;15.48;64.17;100467.83;153992;1101;103215;-79
2021/07/11 03:25:19;;;;;;;8.57;6.07;;;;;;;15.68;64.33;100458.25;154027;1093;103199;-77
2021/07/11 03:28:24;;;;;;;7.88;6.63;;;;;;;15.99;64.24;100462.68;153966;1101;103186;-75
2021/07/11 03:31:29;;;;;;;8.50;6.23;;;;;;;16.24;63.60;100467.81;153965;1101;103187;-75
2021/07/11 03:34:35;;;;;;;9.18;6.58;;;;;;;16.42;63.79;100464.77;153967;1101;103128;-75
2021/07/11 03:37:50;;;;;;;7.03;6.13;;;;;;;16.65;63.62;100470.88;154027;1101;103227;-78
2021/07/11 03:40:56;;;;;;;7.15;6.23;;;;;;;16.94;63.85;100473.75;153996;1093;103219;-79
2021/07/11 03:44:05;;;;;;;7.08;5.60;;;;;;;17.24;63.65;100469.09;153968;1101;103302;-79
2021/07/11 03:47:12;;;;;;;7.18;5.68;;;;;;;17.52;63.49;100471.04;153995;1101;103221;-79
2021/07/11 03:50:21;;;;;;;8.07;5.83;;;;;;;17.83;63.17;100462.58;154062;1094;103193;-81
2021/07/11 03:53:30;;;;;;;9.18;6.10;;;;;;;18.03;63.01;100463.61;153996;1101;103545;-81
2021/07/11 03:56:36;;;;;;;6.13;5.45;;;;;;;18.19;63.10;100456.23;153996;1101;103489;-81
2021/07/11 03:59:43;;;;;;;6.20;5.05;;;;;;;18.38;63.19;100470.86;154090;1101;103292;-80
2021/07/11 04:02:52;;;;;;;6.40;5.30;;;;;;;18.68;63.12;100467.91;154044;1094;103128;-80
2021/07/11 04:06:01;;;;;;;6.40;4.65;;;;;;;18.88;62.91;100476.13;153964;1093;103198;-81
2021/07/11 04:09:07;;;;;;;5.33;4.83;;;;;;;19.09;62.73;100477.86;154077;1093;103238;-79
2021/07/11 04:12:13;;;;;;;5.73;4.93;;;;;;;19.30;62.61;100474.17;154033;1093;103221;-80
2021/07/11 04:15:18;;;;;;;7.63;4.95;;;;;;;19.52;62.69;100472.14;154090;1093;103138;-73
2021/07/11 04:18:25;;;;;;;4.70;4.20;;;;;;;19.76;62.70;100476.95;153957;1093;103221;-74
2021/07/11 04:21:33;;;;;;;5.67;5.10;;;;;;;20.06;62.39;100475.72;153992;1101;103208;-79
2021/07/11 04:24:40;;;;;;;5.27;4.77;;;;;;;20.20;62.40;100474.64;154019;1094;103604;-75
2021/07/11 04:27:47;;;;;;;6.37;5.40;;;;;;;20.36;62.22;100476.05;154207;1101;103224;-75
2021/07/11 04:30:52;;;;;;;5.70;5.10;;;;;;;20.50;62.20;100483.13;153900;1101;103247;-79
2021/07/11 04:33:58;;;;;;;5.83;5.18;;;;;;;20.65;62.23;100482.91;154097;1101;103221;-79
2021/07/11 04:37:04;;;;;;;6.07;4.67;;;;;;;20.79;62.19;100484.51;154075;1093;103198;-80
2021/07/11 04:40:12;;;;;;;5.05;3.80;;;;;;;20.98;61.98;100480.05;154070;1101;103230;-82
2021/07/11 04:43:17;;;;;;;5.00;4.50;;;;;;;21.22;61.84;100485.76;154070;1101;103174;-81
2021/07/11 04:46:22;;;;;;;5.83;5.13;;;;;;;21.37;61.99;100491.72;153947;1094;103293;-84
2021/07/11 04:49:28;;;;;;;4.40;3.77;;;;;;;21.55;61.46;100488.28;154141;1101;103146;-84
2021/07/11 04:52:33;;;;;;;4.43;4.00;;;;;;;21.82;61.17;100485.36;154066;1101;103165;-82
2021/07/11 04:55:38;;;;;;;4.60;4.17;;;;;;;22.07;60.83;100479.09;154056;1093;103141;-81
2021/07/11 04:58:43;;;;;;;4.60;4.13;;;;;;;22.30;60.55;100487.45;154065;1101;103131;-81
2021/07/11 05:01:48;;;;;;;4.73;4.00;;;;;;;22.53;60.45;100494.13;153943;1101;103250;-79
2021/07/11 05:04:53;;;;;;;4.25;3.85;;;;;;;22.65;60.24;100481.45;154071;1101;103211;-80
2021/07/11 05:07:58;;;;;;;5.27;4.47;;;;;;;22.74;60.77;100479.23;153931;1093;103217;-80
2021/07/11 05:11:03;;;;;;;6.93;6.27;;;;;;;22.81;60.95;100480.00;154050;1101;103205;-84
2021/07/11 05:14:08;;;;;;;6.83;5.90;;;;;;;22.78;60.79;100480.44;154044;1101;103219;-81
2021/07/11 05:17:13;;;;;;;5.40;4.40;;;;;;;22.66;60.41;100482.27;154073;1094;103196;-78
2021/07/11 05:20:19;;;;;;;4.93;3.93;;;;;;;22.71;60.44;100480.53;153999;1094;103140;-76
2021/07/11 05:23:24;;;;;;;4.58;4.23;;;;;;;22.55;59.81;100481.13;153975;1093;103129;-78
2021/07/11 05:26:30;;;;;;;4.33;3.93;;;;;;;22.31;60.66;100488.31;153946;1093;103135;-77
2021/07/11 05:29:35;;;;;;;4.80;4.10;;;;;;;22.43;60.38;100491.11;153970;1093;103145;-77
2021/07/11 05:32:40;;;;;;;4.63;3.78;;;;;;;22.48;60.59;100491.24;153928;1101;103190;-78
2021/07/11 05:35:44;;;;;;;3.93;3.63;;;;;;;22.60;60.17;100489.45;153998;1101;103195;-77
2021/07/11 05:38:50;;;;;;;4.33;3.67;;;;;;;22.71;59.72;100490.56;153972;1093;103190;-77
2021/07/11 05:41:55;;;;;;;3.68;3.38;;;;;;;22.79;60.04;100486.70;153930;1101;103195;-76
2021/07/11 05:45:00;;;;;;;3.85;3.55;;;;;;;22.83;59.83;100477.88;153964;1101;103154;-77
2021/07/11 05:48:06;;;;;;;4.77;3.57;;;;;;;22.83;59.79;100479.77;153969;1101;103264;-77
2021/07/11 05:51:11;;;;;;;4.10;3.53;;;;;;;22.85;59.55;100474.93;154029;1093;103110;-76
2021/07/11 05:54:16;;;;;;;3.77;3.47;;;;;;;22.91;59.37;100468.57;153959;1093;103212;-77
2021/07/11 05:57:21;;;;;;;3.63;3.33;;;;;;;22.88;59.61;100471.73;153999;1093;103170;-79
2021/07/11 06:00:26;;;;;;;4.05;3.58;;;;;;;22.91;59.61;100479.45;153949;1101;103157;-73
2021/07/11 06:03:31;;;;;;;3.93;3.47;;;;;;;22.87;58.94;100472.81;153979;1093;103238;-79
2021/07/11 06:06:36;;;;;;;4.18;3.60;;;;;;;22.88;59.59;100474.45;154114;1101;103161;-74
2021/07/11 06:09:41;;;;;;;3.78;3.33;;;;;;;22.87;59.17;100467.37;154013;1093;103255;-74
2021/07/11 06:12:47;;;;;;;3.33;3.03;;;;;;;22.82;59.29;100470.76;153978;1101;103463;-72
2021/07/11 06:15:52;;;;;;;4.70;3.90;;;;;;;22.74;59.29;100468.36;153963;1093;103230;-72
2021/07/11 06:18:57;;;;;;;4.30;3.30;;;;;;;22.65;59.25;100465.13;153904;1101;103257;-74
2021/07/11 06:22:02;;;;;;;7.98;3.83;;;;;;;22.59;59.00;100467.91;153959;1101;103193;-74
2021/07/11 06:25:09;;;;;;;4.17;3.87;;;;;;;22.51;59.30;100469.88;153940;1101;103195;-74
2021/07/11 06:28:14;;;;;;;4.00;3.70;;;;;;;22.42;59.32;100471.25;153902;1093;104016;-75
2021/07/11 06:31:19;;;;;;;4.80;3.67;;;;;;;22.32;59.35;100466.31;154002;1093;103128;-74
2021/07/11 06:34:25;;;;;;;3.55;3.30;;;;;;;22.27;59.53;100465.36;154093;1093;103274;-71
2021/07/11 06:37:30;;;;;;;5.40;4.13;;;;;;;22.28;59.78;100469.72;153880;1093;103116;-73
2021/07/11 06:40:34;;;;;;;3.58;3.28;;;;;;;22.25;59.42;100470.16;153973;1101;103556;-72
2021/07/11 06:43:39;;;;;;;3.98;3.68;;;;;;;22.21;59.52;100458.90;153988;1101;103617;-72
2021/07/11 06:46:44;;;;;;;3.80;3.50;;;;;;;22.18;59.70;100464.77;154002;1101;103106;-72
2021/07/11 06:49:49;;;;;;;3.80;3.50;;;;;;;22.13;59.71;100468.17;153989;1101;103261;-73
2021/07/11 06:52:55;;;;;;;3.70;3.40;;;;;;;22.08;59.67;100465.29;154023;1093;103572;-73
2021/07/11 06:56:00;;;;;;;4.65;3.95;;;;;;;22.10;59.75;100462.35;153963;1093;103183;-73
2021/07/11 06:59:05;;;;;;;3.97;3.57;;;;;;;22.14;59.50;100458.95;153976;1094;103579;-72
2021/07/11 07:02:10;;;;;;;4.70;3.75;;;;;;;22.10;59.58;100457.74;153982;1101;103050;-72
2021/07/11 07:05:15;;;;;;;3.30;3.07;;;;;;;22.14;59.43;100458.95;153947;1094;103195;-72
2021/07/11 07:08:20;;;;;;;3.93;3.20;;;;;;;22.19;59.24;100466.45;153954;1093;103121;-71
2021/07/11 07:11:25;;;;;;;3.55;3.25;;;;;;;22.25;59.22;100464.72;153967;1101;103118;-73
2021/07/11 07:14:30;;;;;;;4.50;3.60;;;;;;;22.32;59.26;100460.88;153957;1101;103195;-73
2021/07/11 07:17:35;;;;;;;3.57;3.27;;;;;;;22.28;59.33;100465.11;153936;1101;103215;-73
2021/07/11 07:20:40;;;;;;;3.70;3.40;;;;;;;22.34;59.30;100464.23;153946;1101;103273;-72
2021/07/11 07:23:45;;;;;;;3.70;3.35;;;;;;;22.42;59.25;100456.80;153968;1101;103195;-73
2021/07/11 07:26:50;;;;;;;5.20;3.75;;;;;;;22.51;59.52;100459.00;154036;1101;103195;-74
2021/07/11 07:29:55;;;;;;;3.50;3.20;;;;;;;22.67;59.43;100462.16;153931;1101;103125;-70
2021/07/11 07:33:00;;;;;;;3.00;2.80;;;;;;;22.82;58.99;100462.59;153904;1101;103123;-75
2021/07/11 07:36:06;;;;;;;3.85;3.33;;;;;;;22.94;59.29;100454.48;153927;1093;103197;-73
2021/07/11 07:39:11;;;;;;;3.33;3.03;;;;;;;23.17;58.63;100464.67;154037;1101;103125;-76
2021/07/11 07:42:16;;;;;;;3.00;2.80;;;;;;;23.39;58.70;100462.27;153966;1093;103557;-73
2021/07/11 07:45:22;;;;;;;4.67;2.90;;;;;;;23.55;58.30;100468.10;153938;1094;103224;-74
2021/07/11 07:48:27;;;;;;;6.38;3.60;;;;;;;23.72;58.44;100460.91;153954;1093;103187;-73
2021/07/11 07:51:32;;;;;;;3.03;2.80;;;;;;;23.82;57.92;100468.52;153941;1102;103220;-73
2021/07/11 07:54:37;;;;;;;2.50;2.30;;;;;;;24.10;58.23;100456.93;153987;1101;103131;-72
2021/07/11 07:57:42;;;;;;;5.33;2.90;;;;;;;24.33;57.90;100463.41;153992;1101;103124;-72
2021/07/11 08:00:47;;;;;;;2.70;2.50;;;;;;;24.47;57.49;100462.09;153962;1093;103483;-72
2021/07/11 08:03:52;;;;;;;3.13;2.35;;;;;;;24.64;56.90;100454.03;154082;1101;103203;-73
2021/07/11 08:06:57;;;;;;;3.97;2.60;;;;;;;24.77;57.00;100458.37;154089;1101;103206;-71
2021/07/11 08:10:03;;;;;;;3.03;2.73;;;;;;;24.84;56.96;100456.33;154127;1097;103241;-72
2021/07/11 08:13:08;;;;;;;3.00;2.40;;;;;;;24.90;56.70;100455.36;154071;1101;103218;-73
2021/07/11 08:16:13;;;;;;;3.10;2.40;;;;;;;24.99;56.68;100462.09;154018;1093;103202;-72
2021/07/11 08:19:19;;;;;;;3.03;2.70;;;;;;;25.09;56.23;100451.35;154043;1101;103519;-73
2021/07/11 08:22:23;;;;;;;2.57;2.37;;;;;;;25.13;56.14;100456.33;153996;1101;103589;-73
2021/07/11 08:25:28;;;;;;;3.13;2.20;;;;;;;25.15;55.81;100454.19;154017;1094;103104;-73
2021/07/11 08:28:33;;;;;;;2.57;2.37;;;;;;;25.07;55.55;100452.67;153959;1101;103131;-71
2021/07/11 08:31:38;;;;;;;5.05;2.25;;;;;;;25.08;55.55;100460.63;153953;1101;103221;-76
2021/07/11 08:34:44;;;;;;;2.57;2.37;;;;;;;25.17;55.55;100452.86;153875;1093;103164;-85
2021/07/11 08:37:49;;;;;;;2.90;2.60;;;;;;;25.29;54.80;100455.59;154022;1101;103273;-72
2021/07/11 08:40:54;;;;;;;3.03;2.73;;;;;;;25.29;55.26;100455.59;154032;1093;103141;-71
2021/07/11 08:43:59;;;;;;;2.58;2.23;;;;;;;25.17;54.77;100450.13;154107;1093;103131;-80
2021/07/11 08:47:05;;;;;;;3.70;2.20;;;;;;;25.21;54.96;100450.47;154090;1101;103184;-77
2021/07/11 08:50:12;;;;;;;4.30;2.45;;;;;;;25.27;54.67;100453.09;154258;1101;103147;-74
2021/07/11 08:53:18;;;;;;;3.53;2.40;;;;;;;25.32;54.80;100454.25;154171;1101;103288;-74
2021/07/11 08:56:25;;;;;;;2.60;2.40;;;;;;;25.30;54.45;100451.77;154061;1101;103125;-76
2021/07/11 08:59:31;;;;;;;3.27;2.37;;;;;;;25.32;53.72;100444.16;154089;1101;103132;-75
2021/07/11 09:02:36;;;;;;;2.60;2.40;;;;;;;25.33;54.06;100451.28;154084;1093;103100;-75
2021/07/11 09:05:42;;;;;;;2.63;2.43;;;;;;;25.28;54.18;100443.81;154181;1101;103131;-75
2021/07/11 09:08:47;;;;;;;3.40;2.53;;;;;;;25.23;53.66;100441.02;153988;1093;103185;-77
2021/07/11 09:11:55;;;;;;;2.57;2.37;;;;;;;25.24;53.98;100447.30;154005;1101;103199;-76
2021/07/11 09:15:00;;;;;;;2.70;2.50;;;;;;;25.22;53.96;100447.53;154207;1096;103198;-77
2021/07/11 09:18:06;;;;;;;3.33;2.40;;;;;;;25.31;54.00;100449.85;154212;1094;103145;-74
2021/07/11 09:21:12;;;;;;;3.00;2.70;;;;;;;25.41;53.88;100450.05;154172;1101;103166;-75
2021/07/11 09:24:18;;;;;;;3.50;3.20;;;;;;;25.47;54.09;100438.95;154121;1101;103257;-76
2021/07/11 09:27:25;;;;;;;3.20;2.90;;;;;;;25.54;53.44;100435.22;154159;1094;103141;-76
2021/07/11 09:30:30;;;;;;;4.43;2.87;;;;;;;25.42;52.83;100427.95;154111;1096;103195;-76
2021/07/11 09:33:36;;;;;;;3.78;2.80;;;;;;;25.37;53.30;100433.32;154134;1097;103192;-77
2021/07/11 09:36:41;;;;;;;2.73;2.53;;;;;;;25.44;53.36;100425.80;154222;1101;103135;-76
2021/07/11 09:39:54;;;;;;;3.23;2.93;;;;;;;25.60;53.46;100421.41;154027;1096;103208;-77
2021/07/11 09:43:00;;;;;;;3.20;2.93;;;;;;;25.75;53.52;100419.98;154062;1095;103093;-74
2021/07/11 09:46:14;;;;;;;5.20;2.75;;;;;;;25.84;53.18;100422.04;154021;1101;103107;-75
2021/07/11 09:49:19;;;;;;;3.03;2.73;;;;;;;25.82;52.01;100423.38;154065;1097;103136;-76
2021/07/11 09:52:24;;;;;;;3.17;2.80;;;;;;;25.83;52.95;100419.58;153991;1101;103223;-75
2021/07/11 09:55:31;;;;;;;3.07;2.80;;;;;;;25.84;52.14;100427.50;154033;1096;103169;-76
2021/07/11 09:58:37;;;;;;;3.40;3.18;;;;;;;25.83;52.65;100417.67;154082;1101;103124;-76
2021/07/11 10:01:43;;;;;;;2.93;2.63;;;;;;;25.81;52.49;100411.63;154010;1101;103174;-76
2021/07/11 10:04:48;;;;;;;3.03;2.50;;;;;;;25.76;53.24;100422.47;154104;1101;103124;-76
2021/07/11 10:07:54;;;;;;;3.03;2.80;;;;;;;25.73;52.71;100417.52;154064;1096;103480;-77
2021/07/11 10:10:59;;;;;;;2.30;2.10;;;;;;;25.74;52.46;100418.34;154052;1101;103169;-75
2021/07/11 10:14:05;;;;;;;2.57;2.30;;;;;;;25.71;52.67;100405.98;154024;1101;103135;-73
2021/07/11 10:17:11;;;;;;;2.57;2.20;;;;;;;25.74;52.58;100407.41;154026;1093;103169;-73
2021/07/11 10:20:19;;;;;;;2.40;2.20;;;;;;;25.75;52.43;100404.44;154061;1101;103121;-73
2021/07/11 10:23:32;;;;;;;2.23;2.03;;;;;;;25.72;52.05;100418.59;153982;1094;103193;-73
2021/07/11 10:26:41;;;;;;;2.43;2.20;;;;;;;25.67;52.34;100413.03;154038;1093;103190;-73
2021/07/11 10:29:48;;;;;;;2.40;2.20;;;;;;;25.71;52.09;100416.09;154008;1101;103227;-73
2021/07/11 10:32:53;;;;;;;2.33;2.08;;;;;;;25.73;51.84;100422.14;154070;1101;103073;-73
2021/07/11 10:36:04;;;;;;;3.70;2.10;;;;;;;25.71;51.88;100419.65;153994;1101;103132;-73
2021/07/11 10:39:12;;;;;;;4.85;2.00;;;;;;;25.69;51.84;100419.07;153979;1101;103317;-73
2021/07/11 10:42:27;;;;;;;2.90;2.00;;;;;;;25.67;52.06;100413.03;154020;1093;103240;-73
2021/07/11 10:45:32;;;;;;;2.50;2.30;;;;;;;25.58;52.13;100420.83;154045;1094;103158;-74
2021/07/11 10:48:38;;;;;;;2.10;1.90;;;;;;;25.51;52.15;100416.61;154127;1101;103187;-71
2021/07/11 10:51:48;;;;;;;2.85;2.53;;;;;;;25.47;52.27;100414.36;154012;1093;104209;-71
2021/07/11 10:54:54;;;;;;;2.70;2.50;;;;;;;25.39;51.97;100405.77;153898;1093;103215;-74
2021/07/11 10:58:10;;;;;;;1.93;1.70;;;;;;;25.46;51.68;100407.26;154349;1093;103142;-73
2021/07/11 11:01:24;;;;;;;2.00;1.90;;;;;;;25.55;51.44;100412.30;153989;1093;103237;-75
2021/07/11 11:04:30;;;;;;;2.20;2.00;;;;;;;25.58;51.42;100409.09;154039;1093;103138;-74
2021/07/11 11:07:48;;;;;;;2.20;2.00;;;;;;;25.58;50.15;100406.35;153984;1101;103557;-78
2021/07/11 11:10:56;;;;;;;1.80;1.70;;;;;;;25.56;51.50;100400.28;154066;1101;103195;-74
2021/07/11 11:14:09;;;;;;;4.03;2.38;;;;;;;25.60;50.33;100398.73;153970;1101;103174;-75
2021/07/11 11:17:25;;;;;;;3.53;1.90;;;;;;;25.60;51.39;100406.92;154025;1101;103110;-75
2021/07/11 11:20:30;;;;;;;2.05;1.80;;;;;;;25.71;51.57;100392.31;154018;1093;103151;-75
2021/07/11 11:23:37;;;;;;;2.10;1.90;;;;;;;25.92;51.60;100392.66;153986;1101;103117;-75
2021/07/11 11:26:45;;;;;;;2.10;1.90;;;;;;;26.05;51.14;100393.13;154104;1101;103158;-75
2021/07/11 11:29:50;;;;;;;2.27;1.90;;;;;;;26.03;50.92;100395.28;153962;1101;103260;-75
2021/07/11 11:32:57;;;;;;;3.20;1.90;;;;;;;25.86;50.88;100397.19;154006;1093;103123;-76
2021/07/11 11:36:06;;;;;;;3.23;2.20;;;;;;;25.80;50.98;100382.63;154046;1093;103144;-76
2021/07/11 11:39:13;;;;;;;2.50;2.30;;;;;;;25.88;51.41;100391.48;154008;1101;103080;-77
2021/07/11 11:42:21;;;;;;;1.90;1.80;;;;;;;25.98;50.80;100391.64;154019;1101;103180;-78
2021/07/11 11:45:30;;;;;;;2.65;2.08;;;;;;;26.05;50.96;100397.77;154118;1093;103193;-77
2021/07/11 11:48:35;;;;;;;2.38;2.00;;;;;;;25.91;50.65;100389.11;154185;1101;103103;-77
2021/07/11 11:51:48;;;;;;;2.00;1.90;;;;;;;25.86;50.72;100391.72;154209;1101;103132;-78
2021/07/11 11:55:03;;;;;;;2.70;1.90;;;;;;;25.89;50.63;100387.68;154500;1094;103445;-80
2021/07/11 11:58:10;;;;;;;1.95;1.80;;;;;;;25.83;50.31;100382.13;154323;1101;103473;-77
2021/07/11 12:01:17;;;;;;;2.07;1.70;;;;;;;25.86;50.45;100386.26;153972;1101;103187;-77
2021/07/11 12:04:23;;;;;;;1.70;1.60;;;;;;;25.96;50.24;100393.80;153995;1101;103187;-78
2021/07/11 12:07:28;;;;;;;2.98;1.90;;;;;;;26.11;50.34;100387.73;153963;1093;103148;-78
2021/07/11 12:10:33;;;;;;;2.20;1.98;;;;;;;26.24;50.72;100379.97;153944;1094;103104;-79
2021/07/11 12:13:40;;;;;;;2.10;1.90;;;;;;;26.31;50.29;100368.01;154168;1101;103113;-79
2021/07/11 12:16:45;;;;;;;2.30;2.10;;;;;;;26.39;50.19;100370.31;154014;1101;103374;-79
2021/07/11 12:19:56;;;;;;;2.20;2.10;;;;;;;26.41;50.28;100360.76;154024;1101;103103;-78
2021/07/11 12:23:09;;;;;;;2.30;2.10;;;;;;;26.47;50.14;100361.65;154000;1093;103191;-77
2021/07/11 12:26:14;;;;;;;2.57;2.37;;;;;;;26.41;49.85;100351.73;154012;1093;103110;-80
2021/07/11 12:29:29;;;;;;;2.70;2.50;;;;;;;26.35;49.53;100348.11;153986;1101;103259;-80
2021/07/11 12:32:44;;;;;;;2.50;2.30;;;;;;;26.31;49.66;100359.80;153973;1101;103316;-79
2021/07/11 12:35:51;;;;;;;2.40;2.20;;;;;;;26.27;49.84;100356.77;154010;1101;103603;-81
2021/07/11 12:38:58;;;;;;;3.00;2.70;;;;;;;26.16;49.71;100353.08;153956;1094;103241;-77
2021/07/11 12:42:03;;;;;;;2.77;2.50;;;;;;;26.08;49.24;100348.05;154047;1101;103055;-79
2021/07/11 12:45:19;;;;;;;2.60;2.40;;;;;;;26.07;49.92;100342.83;154087;1101;103278;-82
2021/07/11 12:48:33;;;;;;;2.73;2.53;;;;;;;26.12;49.70;100348.38;154339;1101;103277;-81
2021/07/11 12:51:42;;;;;;;2.90;2.28;;;;;;;26.02;49.85;100349.05;154239;1101;103203;-81
2021/07/11 12:54:47;;;;;;;2.80;2.50;;;;;;;25.98;49.90;100348.75;154104;1093;103123;-81
2021/07/11 12:57:52;;;;;;;2.50;2.23;;;;;;;26.06;50.01;100352.95;154169;1101;103200;-76
2021/07/11 13:01:04;;;;;;;2.70;2.50;;;;;;;26.20;50.40;100346.01;154033;1101;103169;-79
2021/07/11 13:04:09;;;;;;;2.20;2.00;;;;;;;26.37;50.14;100345.13;154080;1101;103395;-80
2021/07/11 13:07:14;;;;;;;2.30;2.10;;;;;;;26.46;49.88;100351.77;154129;1101;103188;-78
2021/07/11 13:10:20;;;;;;;2.50;2.30;;;;;;;26.52;49.30;100342.56;154027;1101;103126;-76
2021/07/11 13:13:25;;;;;;;2.70;2.45;;;;;;;26.55;49.54;100346.69;154012;1093;103163;-77
2021/07/11 13:16:30;;;;;;;2.33;2.23;;;;;;;26.62;49.76;100341.88;154050;1093;103233;-77
2021/07/11 13:19:35;;;;;;;2.53;2.33;;;;;;;26.72;49.14;100341.15;154080;1094;103276;-75
2021/07/11 13:22:40;;;;;;;2.53;2.33;;;;;;;26.74;49.36;100342.53;153998;1101;103136;-75
2021/07/11 13:25:45;;;;;;;2.53;2.33;;;;;;;26.72;49.37;100333.75;153934;1093;103163;-75
2021/07/11 13:28:50;;;;;;;2.70;2.50;;;;;;;26.66;49.22;100329.32;153914;1101;103118;-74
2021/07/11 13:31:55;;;;;;;2.70;2.50;;;;;;;26.56;49.41;100332.75;153954;1093;103320;-75
2021/07/11 13:35:00;;;;;;;2.30;2.10;;;;;;;26.51;49.43;100340.08;153972;1093;103352;-74
2021/07/11 13:38:05;;;;;;;3.08;2.50;;;;;;;26.61;49.32;100337.47;153981;1101;103141;-74
2021/07/11 13:41:10;;;;;;;2.40;2.20;;;;;;;26.70;49.22;100337.84;153950;1101;103585;-75
2021/07/11 13:44:16;;;;;;;2.40;2.20;;;;;;;26.77;49.11;100335.70;153952;1101;103129;-74
2021/07/11 13:47:21;;;;;;;2.97;2.67;;;;;;;26.88;48.68;100329.25;153943;1101;103310;-75
2021/07/11 13:50:26;;;;;;;2.70;2.50;;;;;;;26.91;49.24;100331.48;153943;1101;103185;-72
2021/07/11 13:53:31;;;;;;;2.67;2.33;;;;;;;26.92;48.73;100330.38;153867;1101;103195;-73
2021/07/11 13:56:36;;;;;;;2.60;2.40;;;;;;;26.91;48.76;100328.73;153936;1093;103138;-74
2021/07/11 13:59:41;;;;;;;2.53;2.27;;;;;;;26.93;48.81;100325.75;154020;1101;103186;-75
2021/07/11 14:02:46;;;;;;;3.53;2.30;;;;;;;26.89;49.07;100325.44;154011;1101;103297;-74
2021/07/11 14:05:52;;;;;;;2.60;2.40;;;;;;;26.82;49.07;100317.42;154133;1101;103714;-75
2021/07/11 14:08:56;;;;;;;2.57;2.27;;;;;;;26.88;48.95;100321.03;154048;1101;103110;-76